Time;durP1;ratioP1;P1;durP2;ratioP2;P2;SDS_P1;SDS_P2;PMS_P1;PMS_P2;Temp;Humidity;BMP_temperature;BMP_pressure;BME280_temperature;BME280_humidity;BME280_pressure;Samples;Min_cycle;Max_cycle;Signal;HPM_P1;HPM_P2
2021/04/27 04:42:54;;;;;;;10.05;5.50;;;;;;;4.91;71.17;100170.19;1716468;82;21317;-36
2021/04/27 04:45:25;;;;;;;8.70;5.17;;;;;;;4.97;70.82;100166.42;1671554;83;21172;-42
2021/04/27 04:48:13;;;;;;;11.15;6.20;;;;;;;5.01;70.93;100169.53;1767661;79;23458;-40
2021/04/27 04:50:46;;;;;;;9.18;5.35;;;;;;;4.96;71.14;100162.08;1727708;82;21342;-41
2021/04/27 04:53:38;;;;;;;10.05;5.40;;;;;;;5.05;71.01;100162.70;1795033;78;23094;-36
2021/04/27 04:56:06;;;;;;;13.32;6.30;;;;;;;5.06;71.37;100176.12;1770548;79;21154;-37
2021/04/27 04:58:35;;;;;;;9.68;5.92;;;;;;;5.12;71.75;100176.23;1777319;80;21194;-36
2021/04/27 05:01:05;;;;;;;10.03;5.35;;;;;;;5.18;71.25;100170.30;1775101;80;21159;-42
2021/04/27 05:03:33;;;;;;;8.60;5.08;;;;;;;5.24;70.98;100169.13;1774220;80;21190;-37
2021/04/27 05:06:20;;;;;;;9.35;6.17;;;;;;;5.32;70.05;100168.83;1775348;79;21182;-37
2021/04/27 05:09:09;;;;;;;13.28;6.40;;;;;;;5.42;69.82;100177.67;1770268;79;21160;-37
2021/04/27 05:12:03;;;;;;;15.23;6.67;;;;;;;5.57;69.70;100167.17;1800496;76;23208;-35
2021/04/27 05:14:40;;;;;;;12.82;7.58;;;;;;;5.66;69.97;100172.93;1757790;78;21281;-41
2021/04/27 05:17:14;;;;;;;8.87;5.63;;;;;;;5.80;69.68;100182.28;1797910;78;21153;-35
2021/04/27 05:19:48;;;;;;;12.13;6.20;;;;;;;5.88;69.48;100187.17;1774717;77;22072;-35
2021/04/27 05:22:31;;;;;;;19.52;6.47;;;;;;;5.95;68.54;100184.28;1741340;78;21269;-35
2021/04/27 05:25:17;;;;;;;12.50;6.25;;;;;;;6.01;68.50;100185.68;1776585;78;21184;-37
2021/04/27 05:28:19;;;;;;;8.70;5.62;;;;;;;6.05;67.82;100186.19;1794443;78;21696;-41
2021/04/27 05:30:59;;;;;;;13.98;6.90;;;;;;;6.10;67.80;100187.14;1800004;78;21380;-36
2021/04/27 05:33:32;;;;;;;12.75;7.17;;;;;;;6.16;67.77;100182.05;1800950;78;21604;-37
2021/04/27 05:36:37;;;;;;;11.57;6.45;;;;;;;6.24;67.95;100182.16;1798324;78;21138;-36
2021/04/27 05:43:47;;;;;;;15.00;5.92;;;;;;;6.49;66.91;100180.36;1803826;78;21682;-36
2021/04/27 05:46:44;;;;;;;14.23;6.58;;;;;;;6.61;66.31;100180.56;1806170;78;21352;-36
2021/04/27 05:50:37;;;;;;;14.87;6.58;;;;;;;6.69;66.11;100179.80;1805674;78;21415;-42
2021/04/27 06:00:39;;;;;;;10.32;6.10;;;;;;;7.04;65.63;100177.66;1804112;78;21169;-36
2021/04/27 06:03:22;;;;;;;17.65;6.22;;;;;;;7.23;65.40;100181.34;1799926;78;21152;-42
2021/04/27 06:16:54;;;;;;;15.38;6.12;;;;;;;7.51;64.00;100183.40;1721369;81;21320;-42
2021/04/27 06:20:10;;;;;;;16.27;7.62;;;;;;;7.59;63.01;100180.43;1756678;80;21191;-36
2021/04/27 06:23:15;;;;;;;11.28;6.00;;;;;;;7.67;62.77;100182.70;1755742;80;21320;-42
2021/04/27 06:31:13;;;;;;;16.15;6.90;;;;;;;7.95;59.84;100174.72;1752463;80;22012;-37
2021/04/27 06:34:34;;;;;;;12.58;5.87;;;;;;;8.00;58.74;100181.25;1758443;80;21082;-36
2021/04/27 06:37:22;;;;;;;10.72;5.45;;;;;;;8.06;56.00;100183.94;1759937;80;21205;-36
2021/04/27 06:39:51;;;;;;;10.80;5.97;;;;;;;8.10;55.53;100179.17;1756724;80;21194;-37
2021/04/27 06:42:19;;;;;;;15.48;5.90;;;;;;;8.14;54.37;100172.27;1755120;80;21603;-41
2021/04/27 06:44:47;;;;;;;18.95;6.12;;;;;;;8.19;55.04;100178.39;1762838;80;21268;-36
2021/04/27 06:47:15;;;;;;;19.48;6.03;;;;;;;8.27;55.58;100179.30;1756316;80;21580;-35
2021/04/27 06:49:43;;;;;;;12.63;5.65;;;;;;;8.35;54.83;100180.25;1761274;80;21172;-35
2021/04/27 06:52:10;;;;;;;13.72;6.05;;;;;;;8.40;54.83;100178.98;1766701;80;21191;-35
2021/04/27 06:54:38;;;;;;;11.25;7.05;;;;;;;8.45;53.95;100172.08;1763535;80;21171;-36
2021/04/27 06:57:06;;;;;;;14.98;6.30;;;;;;;8.52;53.46;100176.46;1763766;80;21709;-42
2021/04/27 06:59:36;;;;;;;11.10;5.72;;;;;;;8.58;53.53;100178.23;1759225;80;21144;-37
2021/04/27 07:02:08;;;;;;;9.05;4.75;;;;;;;8.66;53.21;100173.52;1758155;80;21204;-38
2021/04/27 07:04:43;;;;;;;8.55;4.92;;;;;;;8.75;53.89;100177.91;1757152;80;21670;-37
2021/04/27 07:07:21;;;;;;;10.25;5.25;;;;;;;8.82;53.01;100178.84;1734342;80;21317;-36
2021/04/27 07:09:51;;;;;;;13.60;5.20;;;;;;;8.89;51.98;100180.17;1764490;80;21183;-41
2021/04/27 07:12:21;;;;;;;9.30;4.17;;;;;;;8.93;52.01;100174.52;1765841;80;21592;-35
2021/04/27 07:14:50;;;;;;;10.43;4.53;;;;;;;9.03;51.81;100173.70;1752560;80;21232;-35
2021/04/27 07:17:18;;;;;;;10.93;4.65;;;;;;;9.12;51.47;100173.75;1758311;80;21167;-36
2021/04/27 07:19:47;;;;;;;11.65;5.92;;;;;;;9.14;50.95;100169.40;1759963;80;21490;-42
2021/04/27 07:22:14;;;;;;;11.90;4.80;;;;;;;9.21;51.20;100168.55;1757062;80;21182;-41
2021/04/27 07:24:43;;;;;;;14.63;6.08;;;;;;;9.28;51.07;100169.03;1760828;80;21515;-37
2021/04/27 07:27:11;;;;;;;9.75;5.42;;;;;;;9.34;51.07;100165.56;1764822;80;21963;-37
2021/04/27 07:29:39;;;;;;;11.28;5.37;;;;;;;9.36;50.86;100174.70;1763987;79;21489;-42
2021/04/27 07:32:10;;;;;;;10.68;4.30;;;;;;;9.27;50.47;100171.17;1721498;82;21135;-43
2021/04/27 07:34:39;;;;;;;6.65;4.55;;;;;;;9.17;50.52;100174.64;1765327;79;21316;-36
2021/04/27 07:37:07;;;;;;;8.00;4.40;;;;;;;9.17;50.54;100177.25;1762750;80;21670;-36
2021/04/27 07:39:35;;;;;;;10.48;5.03;;;;;;;9.21;50.59;100164.62;1763354;80;21184;-41
2021/04/27 07:42:04;;;;;;;10.75;4.90;;;;;;;9.25;50.26;100165.52;1764157;80;21147;-36
2021/04/27 07:44:33;;;;;;;13.53;4.85;;;;;;;9.30;50.61;100172.94;1765447;80;21191;-41
2021/04/27 07:47:15;;;;;;;10.53;4.55;;;;;;;9.28;50.23;100169.47;1703105;82;21175;-41
2021/04/27 07:49:49;;;;;;;8.58;4.10;;;;;;;9.18;49.88;100165.07;1723042;81;21690;-37
2021/04/27 07:52:17;;;;;;;9.78;4.60;;;;;;;9.17;50.69;100168.12;1764257;80;21214;-41
2021/04/27 07:54:47;;;;;;;8.83;4.22;;;;;;;9.22;50.72;100165.09;1760282;80;21159;-40
2021/04/27 07:57:16;;;;;;;13.00;4.95;;;;;;;9.20;49.41;100172.47;1762919;80;21726;-41
2021/04/27 07:59:44;;;;;;;9.43;4.67;;;;;;;9.15;49.63;100171.13;1763084;80;21144;-35
2021/04/27 08:02:14;;;;;;;13.08;4.50;;;;;;;9.14;49.82;100168.53;1766881;80;21154;-37
2021/04/27 08:04:45;;;;;;;7.42;3.92;;;;;;;9.10;49.37;100171.55;1762238;80;21151;-38
2021/04/27 08:18:37;;;;;;;6.72;4.00;;;;;;;9.13;49.79;100164.18;1747523;80;21123;-42
2021/04/27 08:21:07;;;;;;;7.62;3.77;;;;;;;9.04;50.02;100161.98;1764043;79;21626;-42
2021/04/27 08:23:38;;;;;;;7.10;3.75;;;;;;;9.08;49.82;100164.16;1763807;79;21447;-39
2021/04/27 08:26:14;;;;;;;;;;;;;;;9.09;49.23;100161.11;1770359;79;21163;-36
2021/04/27 08:28:47;;;;;;;8.00;4.15;;;;;;;9.05;48.36;100157.64;1706053;79;20187;-41
2021/04/27 08:31:20;;;;;;;6.45;3.27;;;;;;;9.06;48.70;100162.85;1767597;79;21206;-42
2021/04/27 08:33:54;;;;;;;2.98;2.25;;;;;;;9.14;46.50;100155.48;1763915;79;21325;-42
2021/04/27 08:36:27;;;;;;;4.72;2.40;;;;;;;9.21;41.17;100165.06;1765266;79;21155;-42
2021/04/27 08:38:59;;;;;;;5.45;2.02;;;;;;;9.27;37.95;100162.03;1766215;79;21226;-41
2021/04/27 08:41:31;;;;;;;5.30;2.45;;;;;;;9.32;38.65;100152.48;1737046;79;21235;-35
2021/04/27 08:44:05;;;;;;;4.12;2.40;;;;;;;9.46;39.04;100151.67;1767690;79;21320;-36
2021/04/27 08:46:38;;;;;;;3.10;2.27;;;;;;;9.58;39.92;100162.14;1734044;80;21219;-41
2021/04/27 08:49:26;;;;;;;4.35;2.33;;;;;;;9.65;39.96;100161.70;1768436;79;22004;-41
2021/04/27 08:51:57;;;;;;;3.52;2.17;;;;;;;9.63;37.62;100175.22;1767586;79;21339;-41
2021/04/27 08:54:35;;;;;;;3.15;2.35;;;;;;;9.59;38.89;100161.27;1735325;79;21166;-42
2021/04/27 08:57:06;;;;;;;3.33;2.33;;;;;;;9.62;38.91;100162.56;1769175;79;21647;-37
2021/04/27 08:59:40;;;;;;;6.78;2.45;;;;;;;9.69;38.80;100161.73;1765928;79;21149;-40
2021/04/27 09:02:12;;;;;;;3.10;2.37;;;;;;;9.74;38.85;100159.99;1767261;79;21623;-42
2021/04/27 09:04:46;;;;;;;3.87;2.50;;;;;;;9.78;40.28;100155.63;1764891;79;21485;-41
2021/04/27 09:07:24;;;;;;;4.15;2.00;;;;;;;9.72;38.90;100163.02;1764587;79;21166;-36
2021/04/27 09:09:58;;;;;;;6.30;4.30;;;;;;;9.59;38.26;100158.66;1765134;79;21717;-41
2021/04/27 09:12:34;;;;;;;10.68;2.30;;;;;;;9.48;39.04;100156.45;1763325;79;21127;-42
2021/04/27 09:15:15;;;;;;;3.60;2.45;;;;;;;9.43;41.08;100160.35;1767414;79;21604;-37
2021/04/27 09:18:44;;;;;;;3.67;1.75;;;;;;;9.42;40.14;100154.70;1764527;79;21307;-36
2021/04/27 09:21:57;;;;;;;3.15;2.10;;;;;;;9.43;39.88;100149.03;1765256;80;21172;-37
2021/04/27 09:24:27;;;;;;;;;;;;;;;9.49;39.49;100143.39;1762868;80;21178;-40
2021/04/27 09:27:30;;;;;;;4.70;2.72;;;;;;;9.57;40.12;100150.83;1764190;79;20561;-41
2021/04/27 09:30:23;;;;;;;5.03;2.72;;;;;;;9.58;38.66;100146.03;1763684;80;21150;-42
2021/04/27 09:33:27;;;;;;;4.22;2.65;;;;;;;9.58;40.14;100145.16;1764613;80;21288;-38
2021/04/27 09:36:21;;;;;;;3.27;1.87;;;;;;;9.65;39.79;100140.38;1717318;79;21721;-36
2021/04/27 09:39:14;;;;;;;3.35;1.80;;;;;;;9.66;39.59;100138.19;1746021;79;21318;-44
2021/04/27 09:42:07;;;;;;;6.67;2.65;;;;;;;9.60;40.35;100139.05;1763955;79;21237;-37
2021/04/27 09:44:45;;;;;;;3.22;2.55;;;;;;;9.58;41.59;100136.89;1769496;79;21270;-38
2021/04/27 09:47:29;;;;;;;2.95;2.40;;;;;;;9.57;42.12;100136.45;1768929;80;21191;-37
2021/04/27 09:50:06;;;;;;;4.53;2.77;;;;;;;9.53;42.93;100135.14;1768020;80;21343;-43
2021/04/27 09:52:48;;;;;;;3.42;2.60;;;;;;;9.38;42.56;100138.57;1767850;80;21179;-43
2021/04/27 09:55:21;;;;;;;6.65;2.27;;;;;;;9.21;43.60;100138.96;1734305;81;21221;-37
2021/04/27 09:57:56;;;;;;;7.08;3.25;;;;;;;9.10;43.90;100143.27;1766183;79;21155;-37
2021/04/27 10:00:32;;;;;;;5.12;2.62;;;;;;;9.08;44.21;100147.62;1767564;79;21309;-38
2021/04/27 10:03:09;;;;;;;4.42;2.65;;;;;;;9.05;43.64;100146.76;1762213;79;21134;-37
2021/04/27 10:05:46;;;;;;;4.62;2.60;;;;;;;9.04;43.92;100144.12;1765036;80;21679;-43
2021/04/27 10:08:17;;;;;;;3.45;2.45;;;;;;;9.06;44.04;100148.50;1763471;79;21182;-37
2021/04/27 10:11:32;;;;;;;9.43;2.95;;;;;;;9.08;44.13;100138.49;1764926;80;21169;-41
2021/04/27 10:27:03;;;;;;;3.92;2.22;;;;;;;9.21;43.81;100133.30;1765974;79;21200;-40
2021/04/27 10:31:38;;;;;;;5.22;3.15;;;;;;;9.30;45.04;100143.78;1769390;79;21723;-37
2021/04/27 10:35:44;;;;;;;2.85;2.25;;;;;;;9.11;46.91;100146.34;1765555;79;21177;-41
2021/04/27 10:42:55;;;;;;;6.17;2.45;;;;;;;9.07;48.60;100140.23;1716424;80;21181;-41
2021/04/27 10:46:44;;;;;;;;;;;;;;;9.22;47.22;100136.78;1752163;80;21353;-42
2021/04/27 10:50:36;;;;;;;4.95;3.08;;;;;;;9.04;51.11;100158.07;1720635;81;20472;-36
2021/04/27 10:54:21;;;;;;;5.08;3.25;;;;;;;8.65;52.78;100147.01;1696503;82;21175;-36
2021/04/27 10:57:19;;;;;;;5.95;3.12;;;;;;;8.42;54.70;100144.70;1700031;83;21190;-36
2021/04/27 11:00:23;;;;;;;6.37;4.20;;;;;;;8.24;55.82;100145.42;1694433;83;21136;-36
2021/04/27 11:03:25;;;;;;;6.00;3.33;;;;;;;8.05;57.65;100143.52;1675612;82;21183;-37
2021/04/27 11:06:26;;;;;;;4.10;3.00;;;;;;;7.94;58.10;100157.75;1703711;83;21516;-41
2021/04/27 11:09:29;;;;;;;3.95;3.47;;;;;;;7.90;57.23;100150.36;1703865;83;21321;-40
2021/04/27 11:12:28;;;;;;;3.87;3.40;;;;;;;7.84;58.41;100151.61;1679684;83;21140;-41
2021/04/27 11:15:12;;;;;;;4.50;3.30;;;;;;;7.78;57.48;100147.66;1789001;77;21843;-35
2021/04/27 11:18:04;;;;;;;5.40;3.12;;;;;;;7.70;58.05;100142.78;1732661;80;21192;-42
2021/04/27 11:21:09;;;;;;;5.05;3.37;;;;;;;7.66;58.35;100147.11;1711096;80;21164;-42
2021/04/27 11:23:52;;;;;;;5.85;3.58;;;;;;;7.62;58.60;100146.63;1730819;82;21185;-36
2021/04/27 11:26:40;;;;;;;8.70;4.67;;;;;;;7.61;59.43;100154.00;1739373;82;21475;-38
2021/04/27 11:29:23;;;;;;;6.03;3.98;;;;;;;7.64;60.09;100146.20;1727182;80;21313;-35
2021/04/27 11:32:06;;;;;;;5.28;3.77;;;;;;;7.66;60.04;100154.92;1738915;80;21169;-44
2021/04/27 11:34:58;;;;;;;5.70;3.42;;;;;;;7.66;60.86;100156.23;1744117;80;21190;-36
2021/04/27 11:37:33;;;;;;;3.02;2.70;;;;;;;7.68;60.21;100145.81;1734296;82;21158;-36
2021/04/27 11:40:25;;;;;;;4.70;3.33;;;;;;;7.77;61.04;100146.31;1740139;82;21146;-40
2021/04/27 11:45:49;;;;;;;5.70;3.67;;;;;;;7.73;61.10;100146.30;1792094;79;22712;-35
2021/04/27 11:48:22;;;;;;;4.33;3.17;;;;;;;7.60;61.93;100147.48;1785067;78;21162;-37
2021/04/27 11:50:50;;;;;;;5.08;3.83;;;;;;;7.50;62.17;100150.84;1781583;78;21768;-36
2021/04/27 11:53:21;;;;;;;4.72;3.75;;;;;;;7.38;63.09;100149.86;1764434;78;21630;-38
2021/04/27 11:55:58;;;;;;;3.37;2.77;;;;;;;7.26;64.32;100144.53;1793853;79;21513;-36
2021/04/27 11:58:32;;;;;;;4.03;3.27;;;;;;;7.12;65.22;100146.09;1783477;78;21115;-42
2021/04/27 12:01:09;;;;;;;8.43;3.90;;;;;;;6.92;66.53;100144.56;1790034;78;21154;-42
2021/04/27 12:03:42;;;;;;;5.83;4.40;;;;;;;6.71;67.51;100145.15;1793808;78;21619;-36
2021/04/27 12:06:18;;;;;;;18.37;8.50;;;;;;;6.55;68.05;100146.69;1795865;78;21257;-42
2021/04/27 12:08:53;;;;;;;6.90;4.05;;;;;;;6.44;69.48;100139.17;1786676;78;21724;-36
2021/04/27 12:11:29;;;;;;;5.30;3.77;;;;;;;6.38;69.61;100134.75;1787279;78;21626;-43
2021/04/27 12:14:16;;;;;;;7.15;4.03;;;;;;;6.37;70.40;100131.68;1788011;80;22057;-43
2021/04/27 12:16:45;;;;;;;5.87;3.62;;;;;;;6.39;71.08;100137.80;1769392;79;21148;-43
2021/04/27 12:19:19;;;;;;;6.47;4.28;;;;;;;6.37;71.00;100138.17;1759103;80;21672;-37
2021/04/27 12:24:42;;;;;;;7.25;4.70;;;;;;;6.35;71.88;100128.20;1771829;79;22948;-36
2021/04/27 12:27:21;;;;;;;6.70;4.50;;;;;;;6.38;72.64;100129.98;1713284;82;21159;-42
